Time;durP1;ratioP1;P1;durP2;ratioP2;P2;SDS_P1;SDS_P2;PMS_P1;PMS_P2;Temp;Humidity;BMP_temperature;BMP_pressure;BME280_temperature;BME280_humidity;BME280_pressure;Samples;Min_cycle;Max_cycle;Signal;HPM_P1;HPM_P2
2021/03/07 00:02:01;;;;;;;23.10;9.43;;;;;;;;;;5031686;28;20455;-87
2021/03/07 00:04:27;;;;;;;9.68;8.07;;;;;;;;;;5031962;28;20391;-87
2021/03/07 00:06:53;;;;;;;11.02;8.57;;;;;;;;;;5034360;28;20397;-87
2021/03/07 00:09:19;;;;;;;9.47;8.17;;;;;;;;;;5033255;28;20417;-87
2021/03/07 00:11:45;;;;;;;10.07;8.05;;;;;;;;;;5014520;28;20472;-87
2021/03/07 00:14:11;;;;;;;9.52;8.55;;;;;;;;;;5038022;28;20482;-87
2021/03/07 00:16:37;;;;;;;11.77;8.43;;;;;;;;;;5034297;28;20424;-87
2021/03/07 00:19:03;;;;;;;9.90;8.43;;;;;;;;;;5039292;28;20391;-87
2021/03/07 00:21:29;;;;;;;11.38;8.07;;;;;;;;;;5014846;28;20414;-87
2021/03/07 00:23:55;;;;;;;9.97;7.87;;;;;;;;;;5031475;28;20395;-87
2021/03/07 00:26:21;;;;;;;10.13;7.57;;;;;;;;;;5015317;28;20423;-87
2021/03/07 00:28:47;;;;;;;11.52;7.97;;;;;;;;;;5031206;28;20495;-87
2021/03/07 00:31:13;;;;;;;10.93;8.38;;;;;;;;;;5045966;28;20512;-87
2021/03/07 00:33:39;;;;;;;9.30;7.60;;;;;;;;;;5032334;28;20398;-87
2021/03/07 00:36:05;;;;;;;9.55;8.10;;;;;;;;;;5034769;28;20397;-87
2021/03/07 00:38:31;;;;;;;10.48;7.93;;;;;;;;;;5034004;28;20485;-87
2021/03/07 00:40:57;;;;;;;9.68;7.72;;;;;;;;;;5050321;28;20405;-87
2021/03/07 00:43:23;;;;;;;9.93;8.10;;;;;;;;;;5017612;28;20439;-87
2021/03/07 00:45:49;;;;;;;10.73;8.27;;;;;;;;;;5017712;28;20401;-87
2021/03/07 00:48:15;;;;;;;12.32;7.85;;;;;;;;;;5034500;28;20401;-87
2021/03/07 00:50:41;;;;;;;9.70;7.75;;;;;;;;;;5033400;28;20811;-87
2021/03/07 00:53:07;;;;;;;9.88;7.70;;;;;;;;;;5034229;28;20920;-86
2021/03/07 00:55:33;;;;;;;12.88;8.07;;;;;;;;;;5050777;28;20389;-87
2021/03/07 00:57:58;;;;;;;11.52;8.23;;;;;;;;;;5050606;28;20404;-87
2021/03/07 01:00:25;;;;;;;9.63;8.63;;;;;;;;;;5050214;28;20776;-87
2021/03/07 01:02:51;;;;;;;10.27;8.20;;;;;;;;;;5017528;28;20878;-87
2021/03/07 01:05:23;;;;;;;8.65;7.68;;;;;;;;;;5034275;28;20424;-87
2021/03/07 01:07:49;;;;;;;8.43;7.47;;;;;;;;;;5049963;28;20580;-87
2021/03/07 01:10:16;;;;;;;9.52;7.63;;;;;;;;;;5033691;28;20520;-87
2021/03/07 01:12:42;;;;;;;10.15;7.55;;;;;;;;;;5050602;28;20476;-87
2021/03/07 01:15:08;;;;;;;8.88;7.20;;;;;;;;;;5050517;28;20384;-87
2021/03/07 01:17:34;;;;;;;8.70;7.57;;;;;;;;;;5040005;28;20454;-87
2021/03/07 01:20:00;;;;;;;10.13;7.57;;;;;;;;;;5033507;28;20405;-87
2021/03/07 01:22:26;;;;;;;8.38;7.30;;;;;;;;;;5033873;28;20745;-87
2021/03/07 01:24:52;;;;;;;8.43;7.43;;;;;;;;;;5050401;28;20385;-87
2021/03/07 01:27:18;;;;;;;9.32;7.30;;;;;;;;;;5049595;28;20405;-87
2021/03/07 01:29:44;;;;;;;12.67;7.27;;;;;;;;;;5033503;28;20439;-87
2021/03/07 01:32:10;;;;;;;9.10;6.85;;;;;;;;;;5027887;28;20408;-87
2021/03/07 01:34:36;;;;;;;9.57;7.63;;;;;;;;;;5049855;28;20384;-87
2021/03/07 01:37:02;;;;;;;10.80;7.43;;;;;;;;;;5032312;28;20409;-88
2021/03/07 01:39:28;;;;;;;9.35;6.97;;;;;;;;;;5033397;28;20745;-87
2021/03/07 01:41:56;;;;;;;8.27;7.07;;;;;;;;;;5051604;28;20394;-87
2021/03/07 01:44:22;;;;;;;9.82;7.35;;;;;;;;;;5041656;28;20414;-86
2021/03/07 01:46:48;;;;;;;7.77;6.97;;;;;;;;;;5030346;28;20402;-87
2021/03/07 01:49:17;;;;;;;7.80;7.00;;;;;;;;;;5032406;28;20391;-87
2021/03/07 01:51:43;;;;;;;8.20;6.60;;;;;;;;;;5050124;28;20471;-86
2021/03/07 01:54:09;;;;;;;8.13;6.88;;;;;;;;;;5048982;28;20876;-86
2021/03/07 01:56:35;;;;;;;6.68;5.93;;;;;;;;;;5036145;28;20857;-87
2021/03/07 01:59:04;;;;;;;7.30;6.03;;;;;;;;;;5054112;28;20492;-87
2021/03/07 02:01:30;;;;;;;7.47;6.13;;;;;;;;;;5053938;28;20401;-88
2021/03/07 02:03:58;;;;;;;7.05;5.82;;;;;;;;;;5021235;28;20472;-89
2021/03/07 02:06:24;;;;;;;5.93;5.10;;;;;;;;;;5021221;28;20420;-86
2021/03/07 02:08:51;;;;;;;7.60;5.70;;;;;;;;;;5042453;28;20435;-87
2021/03/07 02:11:20;;;;;;;8.10;5.90;;;;;;;;;;5046221;28;20443;-87
2021/03/07 02:13:48;;;;;;;7.95;5.53;;;;;;;;;;5017393;28;20473;-87
2021/03/07 02:16:24;;;;;;;6.43;4.97;;;;;;;;;;5034144;28;20391;-86
2021/03/07 02:18:50;;;;;;;5.55;4.97;;;;;;;;;;5017431;28;20387;-86
2021/03/07 02:21:16;;;;;;;5.82;5.25;;;;;;;;;;5045957;28;20916;-87
2021/03/07 02:24:17;;;;;;;6.03;4.75;;;;;;;;;;5054826;28;20407;-87
2021/03/07 02:26:49;;;;;;;6.30;5.22;;;;;;;;;;4989713;28;20895;-86
2021/03/07 02:29:16;;;;;;;5.22;4.63;;;;;;;;;;5019101;28;20464;-86
2021/03/07 02:31:54;;;;;;;6.00;5.03;;;;;;;;;;5036943;28;20443;-87
2021/03/07 02:34:25;;;;;;;5.40;4.90;;;;;;;;;;5053204;28;20401;-87
2021/03/07 02:36:52;;;;;;;5.93;5.07;;;;;;;;;;5054723;28;20385;-87
2021/03/07 02:39:19;;;;;;;5.95;5.18;;;;;;;;;;5021195;28;20498;-87
2021/03/07 02:41:45;;;;;;;6.85;4.80;;;;;;;;;;5017028;28;20399;-87
2021/03/07 02:44:13;;;;;;;5.77;4.90;;;;;;;;;;5022992;28;20414;-87
2021/03/07 02:46:41;;;;;;;5.20;4.60;;;;;;;;;;5053103;28;20503;-87
2021/03/07 02:49:08;;;;;;;5.78;5.05;;;;;;;;;;5035476;28;20916;-87
2021/03/07 02:51:43;;;;;;;5.40;4.82;;;;;;;;;;5033259;28;20889;-87
2021/03/07 02:54:09;;;;;;;5.93;5.32;;;;;;;;;;5036680;28;20485;-87
2021/03/07 02:56:35;;;;;;;6.47;4.80;;;;;;;;;;5036811;28;20444;-87
2021/03/07 02:59:03;;;;;;;5.68;5.00;;;;;;;;;;5015919;28;20422;-87
2021/03/07 03:01:29;;;;;;;6.18;5.57;;;;;;;;;;5030867;28;20408;-87
2021/03/07 03:03:55;;;;;;;5.38;4.88;;;;;;;;;;5023921;28;20403;-87
2021/03/07 03:06:21;;;;;;;5.80;4.87;;;;;;;;;;5032565;28;20489;-87
2021/03/07 03:08:49;;;;;;;6.35;5.22;;;;;;;;;;5012337;28;20615;-87
2021/03/07 03:11:15;;;;;;;4.95;4.55;;;;;;;;;;5016233;28;20419;-87
2021/03/07 03:13:41;;;;;;;5.60;4.57;;;;;;;;;;5012787;28;20807;-87
2021/03/07 03:16:07;;;;;;;5.63;5.07;;;;;;;;;;5014373;28;21045;-87
2021/03/07 03:18:34;;;;;;;5.63;4.60;;;;;;;;;;5028495;28;20746;-87
2021/03/07 03:21:01;;;;;;;5.70;4.93;;;;;;;;;;5012864;28;20415;-87
2021/03/07 03:23:27;;;;;;;7.38;5.20;;;;;;;;;;5027693;28;20465;-87
2021/03/07 03:25:53;;;;;;;5.72;4.75;;;;;;;;;;5009497;28;20764;-87
2021/03/07 03:28:20;;;;;;;5.68;4.32;;;;;;;;;;5046809;28;20407;-87
2021/03/07 03:30:46;;;;;;;5.32;4.82;;;;;;;;;;5012735;28;20928;-87
2021/03/07 03:33:12;;;;;;;4.97;4.47;;;;;;;;;;5027836;28;20434;-87
2021/03/07 03:35:39;;;;;;;6.50;4.78;;;;;;;;;;5046496;28;20464;-87
2021/03/07 03:38:05;;;;;;;5.93;4.80;;;;;;;;;;5024280;28;20406;-87
2021/03/07 03:40:32;;;;;;;5.50;4.68;;;;;;;;;;5042341;28;20407;-87
2021/03/07 03:43:02;;;;;;;5.40;4.63;;;;;;;;;;5031983;28;20407;-87
2021/03/07 03:45:28;;;;;;;7.75;5.07;;;;;;;;;;5013531;28;20396;-87
2021/03/07 03:47:58;;;;;;;6.47;5.03;;;;;;;;;;5012039;28;20476;-87
2021/03/07 03:50:24;;;;;;;6.80;5.70;;;;;;;;;;5032508;28;20432;-87
2021/03/07 03:52:50;;;;;;;6.60;5.45;;;;;;;;;;5044088;28;20454;-87
2021/03/07 03:55:18;;;;;;;9.05;5.97;;;;;;;;;;5031646;28;20407;-88
2021/03/07 03:57:44;;;;;;;9.38;5.95;;;;;;;;;;5039689;28;20536;-87
2021/03/07 04:00:14;;;;;;;10.02;6.78;;;;;;;;;;5025463;28;21022;-87
2021/03/07 04:02:40;;;;;;;9.60;6.90;;;;;;;;;;5028337;28;20590;-88
2021/03/07 04:05:09;;;;;;;8.63;6.88;;;;;;;;;;5014044;28;20411;-88
2021/03/07 04:07:35;;;;;;;9.48;6.65;;;;;;;;;;5031786;28;20395;-88
2021/03/07 04:10:01;;;;;;;7.63;6.72;;;;;;;;;;5008272;28;20425;-88
2021/03/07 04:12:27;;;;;;;10.07;6.28;;;;;;;;;;5037916;28;20884;-87
2021/03/07 04:14:53;;;;;;;7.97;6.03;;;;;;;;;;5041545;28;20437;-88
2021/03/07 04:17:20;;;;;;;7.85;6.10;;;;;;;;;;5031127;28;20407;-88
2021/03/07 04:19:46;;;;;;;7.38;5.88;;;;;;;;;;5010829;28;20410;-87
2021/03/07 04:22:12;;;;;;;6.97;6.03;;;;;;;;;;5038543;28;20493;-88
2021/03/07 04:24:38;;;;;;;7.05;5.47;;;;;;;;;;5016654;28;20754;-88
2021/03/07 04:27:08;;;;;;;6.60;5.70;;;;;;;;;;5036378;28;20484;-88
2021/03/07 04:29:34;;;;;;;6.43;5.47;;;;;;;;;;5020029;28;20404;-88
2021/03/07 04:32:00;;;;;;;7.32;6.18;;;;;;;;;;5027071;28;20417;-88
2021/03/07 04:34:26;;;;;;;6.57;5.83;;;;;;;;;;5027071;28;20391;-88
2021/03/07 04:36:53;;;;;;;7.70;5.82;;;;;;;;;;5030697;28;20894;-88
2021/03/07 04:39:19;;;;;;;10.27;6.60;;;;;;;;;;5014309;28;20403;-89
2021/03/07 04:41:45;;;;;;;10.57;7.13;;;;;;;;;;5004644;28;20474;-88
2021/03/07 04:44:11;;;;;;;9.13;7.90;;;;;;;;;;5022382;28;20407;-87
2021/03/07 04:46:37;;;;;;;10.35;8.15;;;;;;;;;;5030234;28;20403;-88
2021/03/07 04:49:03;;;;;;;9.77;8.20;;;;;;;;;;5023817;28;20910;-87
2021/03/07 04:51:29;;;;;;;10.50;7.28;;;;;;;;;;5014405;28;20426;-88
2021/03/07 04:53:55;;;;;;;10.23;7.70;;;;;;;;;;5004957;28;20993;-88
2021/03/07 04:56:22;;;;;;;9.70;7.95;;;;;;;;;;5023097;28;20404;-88
2021/03/07 04:58:51;;;;;;;9.07;7.60;;;;;;;;;;5034983;28;20427;-88
2021/03/07 05:01:17;;;;;;;9.85;7.57;;;;;;;;;;5030166;28;20422;-88
2021/03/07 05:03:43;;;;;;;9.00;7.40;;;;;;;;;;5010085;28;20411;-88
2021/03/07 05:06:11;;;;;;;9.32;8.00;;;;;;;;;;5013916;28;20407;-87
2021/03/07 05:08:37;;;;;;;10.70;7.85;;;;;;;;;;5007394;28;20801;-88
2021/03/07 05:11:03;;;;;;;12.27;8.55;;;;;;;;;;5030972;28;20415;-87
2021/03/07 05:13:29;;;;;;;12.40;8.98;;;;;;;;;;5030996;28;20849;-88
2021/03/07 05:15:57;;;;;;;10.60;9.02;;;;;;;;;;5013442;28;20398;-88
2021/03/07 05:18:23;;;;;;;11.32;9.15;;;;;;;;;;5009780;28;20415;-88
2021/03/07 05:20:49;;;;;;;14.95;9.25;;;;;;;;;;5025545;28;20411;-88
2021/03/07 05:23:15;;;;;;;14.32;9.40;;;;;;;;;;5004894;28;20531;-88
2021/03/07 05:25:41;;;;;;;11.63;9.47;;;;;;;;;;5016065;28;20728;-87
2021/03/07 05:28:07;;;;;;;11.02;8.90;;;;;;;;;;5013716;28;20401;-88
2021/03/07 05:30:33;;;;;;;11.45;8.27;;;;;;;;;;5010678;28;20485;-88
2021/03/07 05:32:59;;;;;;;11.07;8.38;;;;;;;;;;5030218;28;20407;-88
2021/03/07 05:35:25;;;;;;;11.68;9.13;;;;;;;;;;5014924;28;20400;-88
2021/03/07 05:37:51;;;;;;;9.88;8.20;;;;;;;;;;5030086;28;20882;-88
2021/03/07 05:40:17;;;;;;;9.23;8.10;;;;;;;;;;5030689;28;20537;-88
2021/03/07 05:42:43;;;;;;;9.73;8.67;;;;;;;;;;5012337;28;20414;-88
2021/03/07 05:45:09;;;;;;;12.00;8.52;;;;;;;;;;5010103;28;20461;-87
2021/03/07 05:47:38;;;;;;;10.25;8.90;;;;;;;;;;5043296;28;20407;-88
2021/03/07 05:50:05;;;;;;;11.40;9.23;;;;;;;;;;5024731;28;20468;-88
2021/03/07 05:52:31;;;;;;;11.55;9.40;;;;;;;;;;5018311;28;20498;-87
2021/03/07 05:54:57;;;;;;;14.70;9.35;;;;;;;;;;5013082;28;20493;-88
2021/03/07 05:57:23;;;;;;;12.80;8.60;;;;;;;;;;5031298;28;20442;-88
2021/03/07 05:59:49;;;;;;;13.52;9.50;;;;;;;;;;5014256;28;20441;-87
2021/03/07 06:02:16;;;;;;;13.73;9.43;;;;;;;;;;5015840;28;20416;-87
2021/03/07 06:04:42;;;;;;;10.50;9.07;;;;;;;;;;5049324;28;20418;-88
2021/03/07 06:07:08;;;;;;;12.95;9.52;;;;;;;;;;5016012;28;20406;-88
2021/03/07 06:09:34;;;;;;;14.18;9.50;;;;;;;;;;5030501;28;20413;-88
2021/03/07 06:12:01;;;;;;;12.20;9.60;;;;;;;;;;5050635;28;20405;-87
2021/03/07 06:14:28;;;;;;;10.82;9.18;;;;;;;;;;5035666;28;20406;-87
2021/03/07 06:17:05;;;;;;;10.77;8.38;;;;;;;;;;5008612;28;20939;-88
2021/03/07 06:19:31;;;;;;;12.68;9.25;;;;;;;;;;5026136;28;20455;-87
2021/03/07 06:22:00;;;;;;;10.15;9.05;;;;;;;;;;5035389;28;20894;-88
2021/03/07 06:24:33;;;;;;;12.85;8.93;;;;;;;;;;5007010;28;20418;-87
2021/03/07 06:27:09;;;;;;;11.40;9.33;;;;;;;;;;5045594;28;20398;-88
2021/03/07 06:29:37;;;;;;;12.13;8.40;;;;;;;;;;5016284;28;20466;-88
2021/03/07 06:32:06;;;;;;;13.57;9.02;;;;;;;;;;5012577;28;20763;-88
2021/03/07 06:34:41;;;;;;;10.23;8.30;;;;;;;;;;5017035;28;20512;-87
2021/03/07 06:37:07;;;;;;;9.85;8.07;;;;;;;;;;5026003;28;20876;-87
2021/03/07 06:39:33;;;;;;;12.45;9.23;;;;;;;;;;5016048;28;20431;-88
2021/03/07 06:42:06;;;;;;;10.88;8.18;;;;;;;;;;5021408;28;20431;-88
2021/03/07 06:44:32;;;;;;;9.53;8.17;;;;;;;;;;5024677;28;20955;-89
2021/03/07 06:47:16;;;;;;;10.48;8.32;;;;;;;;;;5041025;28;20496;-88
2021/03/07 06:49:42;;;;;;;10.23;8.15;;;;;;;;;;5018818;28;20853;-88
2021/03/07 06:52:15;;;;;;;10.02;8.30;;;;;;;;;;5041494;28;20442;-88
2021/03/07 06:54:42;;;;;;;10.57;8.95;;;;;;;;;;5032526;28;20525;-88
2021/03/07 06:57:08;;;;;;;13.05;8.75;;;;;;;;;;5037485;28;20741;-87
2021/03/07 06:59:34;;;;;;;12.63;8.63;;;;;;;;;;5014820;28;20925;-88
2021/03/07 07:02:00;;;;;;;14.87;9.43;;;;;;;;;;5026631;28;20541;-88
2021/03/07 07:04:39;;;;;;;10.95;8.07;;;;;;;;;;5011788;28;20404;-87
2021/03/07 07:07:06;;;;;;;11.27;9.30;;;;;;;;;;5019937;28;20406;-88
2021/03/07 07:09:32;;;;;;;11.30;8.70;;;;;;;;;;5029152;28;20928;-87
2021/03/07 07:11:58;;;;;;;10.63;8.98;;;;;;;;;;5025706;28;20409;-88
2021/03/07 07:14:28;;;;;;;13.00;8.85;;;;;;;;;;5028768;28;20405;-86
2021/03/07 07:16:57;;;;;;;9.95;7.75;;;;;;;;;;5025186;28;20543;-89
2021/03/07 07:19:23;;;;;;;7.93;7.13;;;;;;;;;;5013869;28;20437;-87
2021/03/07 07:21:49;;;;;;;8.38;7.22;;;;;;;;;;5041449;28;20395;-88
2021/03/07 07:24:15;;;;;;;11.85;7.38;;;;;;;;;;5035034;28;20995;-88
2021/03/07 07:26:41;;;;;;;8.80;7.87;;;;;;;;;;5043090;28;20514;-88
2021/03/07 07:29:07;;;;;;;8.05;7.15;;;;;;;;;;5028434;28;20444;-88
2021/03/07 07:31:35;;;;;;;10.07;8.57;;;;;;;;;;5035393;28;20428;-88
2021/03/07 07:34:02;;;;;;;11.73;9.25;;;;;;;;;;5048521;28;20399;-88
2021/03/07 07:36:39;;;;;;;9.00;7.88;;;;;;;;;;5018737;28;20401;-87
2021/03/07 07:39:06;;;;;;;8.90;7.03;;;;;;;;;;5049438;28;20397;-87
2021/03/07 07:41:33;;;;;;;8.43;7.53;;;;;;;;;;5029694;28;20411;-88
2021/03/07 07:43:59;;;;;;;10.40;8.20;;;;;;;;;;5028948;28;20408;-88
2021/03/07 07:46:25;;;;;;;9.95;8.35;;;;;;;;;;5031349;28;20406;-88
2021/03/07 07:48:51;;;;;;;10.60;8.35;;;;;;;;;;5032181;28;20401;-87
2021/03/07 07:51:37;;;;;;;11.80;9.10;;;;;;;;;;5017723;28;20427;-87
2021/03/07 07:54:03;;;;;;;8.63;7.60;;;;;;;;;;5027511;28;20916;-88
2021/03/07 07:56:35;;;;;;;10.25;7.50;;;;;;;;;;5022423;28;20409;-88
2021/03/07 07:59:01;;;;;;;9.10;7.27;;;;;;;;;;5023072;28;20425;-87
2021/03/07 08:01:45;;;;;;;8.80;7.53;;;;;;;;;;5028336;28;20925;-87
2021/03/07 08:04:26;;;;;;;10.90;7.88;;;;;;;;;;5051965;28;20397;-87
2021/03/07 08:06:52;;;;;;;9.02;7.10;;;;;;;;;;5045633;28;20383;-87
2021/03/07 08:09:38;;;;;;;11.20;7.70;;;;;;;;;;5040982;28;20820;-87
2021/03/07 08:12:22;;;;;;;13.27;12.02;;;;;;;;;;5044066;28;20454;-87
2021/03/07 08:14:48;;;;;;;10.68;6.88;;;;;;;;;;5042998;28;20437;-87
2021/03/07 08:18:07;;;;;;;8.75;6.82;;;;;;;;;;5022965;28;20469;-87
2021/03/07 08:20:40;;;;;;;8.52;6.53;;;;;;;;;;5035723;28;20899;-87
2021/03/07 08:23:16;;;;;;;7.05;6.43;;;;;;;;;;5032485;28;20425;-87
2021/03/07 08:25:51;;;;;;;7.00;6.28;;;;;;;;;;5021591;28;20452;-87
2021/03/07 08:28:30;;;;;;;9.13;6.75;;;;;;;;;;5047845;28;20444;-87
2021/03/07 08:30:59;;;;;;;9.15;6.35;;;;;;;;;;5038437;28;20425;-87
2021/03/07 08:33:25;;;;;;;7.00;6.00;;;;;;;;;;5048508;28;20410;-87
2021/03/07 08:36:10;;;;;;;8.27;6.22;;;;;;;;;;5012443;28;20469;-87
2021/03/07 08:38:36;;;;;;;7.30;6.60;;;;;;;;;;5040159;28;20389;-87
2021/03/07 08:41:02;;;;;;;6.55;5.95;;;;;;;;;;5015284;28;20439;-87
2021/03/07 08:43:29;;;;;;;6.68;5.97;;;;;;;;;;5047599;28;20780;-87
2021/03/07 08:46:04;;;;;;;7.93;6.10;;;;;;;;;;5046562;28;20409;-87
2021/03/07 08:48:30;;;;;;;6.43;5.63;;;;;;;;;;5047667;28;20393;-87
2021/03/07 08:50:56;;;;;;;6.85;5.95;;;;;;;;;;5030828;28;20916;-87
2021/03/07 08:53:26;;;;;;;6.57;5.95;;;;;;;;;;5026058;28;20408;-88
2021/03/07 08:55:52;;;;;;;7.25;6.10;;;;;;;;;;5022816;28;20451;-87
2021/03/07 08:58:18;;;;;;;6.32;5.43;;;;;;;;;;5011400;28;20510;-87
2021/03/07 09:00:45;;;;;;;6.53;5.88;;;;;;;;;;5024421;28;20414;-88
2021/03/07 09:03:16;;;;;;;6.32;5.78;;;;;;;;;;5014555;28;20397;-88
2021/03/07 09:05:42;;;;;;;6.25;5.65;;;;;;;;;;5019135;28;20422;-88
2021/03/07 09:08:08;;;;;;;5.65;5.05;;;;;;;;;;5029637;28;20397;-88
2021/03/07 09:10:34;;;;;;;7.50;6.25;;;;;;;;;;5033571;28;20956;-88
2021/03/07 09:13:30;;;;;;;5.85;5.32;;;;;;;;;;5047311;28;20405;-88
2021/03/07 09:15:57;;;;;;;5.88;5.35;;;;;;;;;;5021446;28;20426;-85
2021/03/07 09:18:24;;;;;;;6.35;5.68;;;;;;;;;;5016670;28;20436;-85
2021/03/07 09:20:51;;;;;;;5.88;5.32;;;;;;;;;;5046083;28;20500;-85
2021/03/07 09:23:34;;;;;;;6.45;5.88;;;;;;;;;;5015252;28;20496;-87
2021/03/07 09:26:00;;;;;;;6.13;5.63;;;;;;;;;;5026347;28;20440;-87
2021/03/07 09:28:29;;;;;;;6.25;5.07;;;;;;;;;;5015107;28;20405;-85
2021/03/07 09:30:56;;;;;;;5.88;5.28;;;;;;;;;;5024445;28;20421;-85
2021/03/07 09:33:22;;;;;;;7.25;5.70;;;;;;;;;;5035566;28;20405;-85
2021/03/07 09:35:48;;;;;;;6.90;5.75;;;;;;;;;;5038808;28;20490;-87
2021/03/07 09:38:15;;;;;;;6.75;6.10;;;;;;;;;;5007357;28;20425;-86
2021/03/07 09:40:43;;;;;;;7.00;6.30;;;;;;;;;;5043191;28;20421;-86
2021/03/07 09:43:10;;;;;;;5.95;5.45;;;;;;;;;;5025518;28;20500;-87
2021/03/07 09:45:49;;;;;;;7.53;5.68;;;;;;;;;;5023212;28;20408;-86
2021/03/07 09:48:15;;;;;;;6.43;5.82;;;;;;;;;;5028720;28;20412;-86
2021/03/07 09:50:47;;;;;;;7.35;6.57;;;;;;;;;;5022637;28;20526;-89
2021/03/07 09:53:14;;;;;;;6.93;6.32;;;;;;;;;;5026667;28;20424;-86
2021/03/07 09:55:40;;;;;;;6.68;6.00;;;;;;;;;;5009308;28;20911;-86
2021/03/07 09:58:06;;;;;;;7.78;6.00;;;;;;;;;;5039786;28;20436;-87
2021/03/07 10:00:33;;;;;;;7.13;6.43;;;;;;;;;;5039935;28;20413;-89
2021/03/07 10:02:59;;;;;;;6.82;6.05;;;;;;;;;;5019326;28;20461;-88
2021/03/07 10:05:25;;;;;;;6.87;6.17;;;;;;;;;;5022366;28;20438;-89
2021/03/07 10:07:50;;;;;;;7.35;6.65;;;;;;;;;;5035376;28;20472;-88
2021/03/07 10:10:16;;;;;;;7.53;5.93;;;;;;;;;;5024380;28;20486;-89
2021/03/07 10:12:45;;;;;;;7.50;6.78;;;;;;;;;;5035397;28;20458;-89
2021/03/07 10:15:13;;;;;;;7.18;6.50;;;;;;;;;;5018171;28;20742;-88
2021/03/07 10:17:48;;;;;;;6.68;6.00;;;;;;;;;;5028882;28;20408;-88
2021/03/07 10:20:14;;;;;;;7.43;6.72;;;;;;;;;;5031409;28;20421;-89
2021/03/07 10:22:44;;;;;;;6.85;6.15;;;;;;;;;;5012465;28;20407;-88
2021/03/07 10:25:30;;;;;;;7.32;6.50;;;;;;;;;;5035780;28;20439;-89
2021/03/07 10:28:00;;;;;;;8.30;6.03;;;;;;;;;;5020753;28;20839;-89
2021/03/07 10:30:29;;;;;;;7.70;6.88;;;;;;;;;;5018916;28;20425;-89
2021/03/07 10:33:15;;;;;;;6.55;6.05;;;;;;;;;;5039582;28;20725;-89
2021/03/07 10:35:57;;;;;;;6.80;6.20;;;;;;;;;;5028252;28;20936;-90
2021/03/07 10:38:23;;;;;;;6.65;6.13;;;;;;;;;;5045598;28;20436;-89
2021/03/07 10:40:49;;;;;;;7.20;6.60;;;;;;;;;;5045264;28;20445;-89
2021/03/07 10:43:15;;;;;;;6.55;6.05;;;;;;;;;;5023572;28;20957;-88
2021/03/07 10:45:50;;;;;;;7.45;6.78;;;;;;;;;;5046892;28;20912;-89
2021/03/07 10:48:18;;;;;;;6.82;6.20;;;;;;;;;;5006480;28;20421;-87
2021/03/07 10:50:48;;;;;;;6.82;6.13;;;;;;;;;;5030932;28;20761;-87
2021/03/07 10:53:15;;;;;;;6.32;5.78;;;;;;;;;;5009811;28;20418;-87
2021/03/07 10:55:41;;;;;;;14.57;10.73;;;;;;;;;;5031517;28;20421;-87
2021/03/07 10:58:07;;;;;;;24.55;17.48;;;;;;;;;;5024742;28;20423;-86
2021/03/07 11:00:33;;;;;;;12.40;11.25;;;;;;;;;;5025152;28;20910;-87
2021/03/07 11:02:59;;;;;;;6.80;6.10;;;;;;;;;;5008692;28;20415;-87
2021/03/07 11:05:25;;;;;;;6.60;6.10;;;;;;;;;;5025426;28;20548;-88
2021/03/07 11:07:51;;;;;;;6.90;6.40;;;;;;;;;;5040620;28;20510;-87
2021/03/07 11:10:43;;;;;;;6.68;6.18;;;;;;;;;;5011801;28;20542;-88
2021/03/07 11:13:09;;;;;;;7.00;6.53;;;;;;;;;;5023038;28;20422;-88
2021/03/07 11:15:35;;;;;;;7.25;6.55;;;;;;;;;;5002492;28;20852;-87
2021/03/07 11:18:01;;;;;;;6.65;6.15;;;;;;;;;;5009736;28;20972;-87
2021/03/07 11:20:27;;;;;;;6.95;6.25;;;;;;;;;;5022401;28;20443;-87
2021/03/07 11:22:53;;;;;;;7.30;6.78;;;;;;;;;;5040623;28;20513;-88
2021/03/07 11:25:31;;;;;;;7.75;7.15;;;;;;;;;;5026623;28;20431;-87
2021/03/07 11:27:57;;;;;;;7.07;6.43;;;;;;;;;;5024708;28;20411;-87
2021/03/07 11:33:44;;;;;;;7.18;6.68;;;;;;;;;;5024363;28;20431;-88
2021/03/07 11:36:10;;;;;;;7.70;7.10;;;;;;;;;;5037000;28;20922;-88
2021/03/07 11:38:36;;;;;;;6.75;6.25;;;;;;;;;;5028105;28;20422;-88
2021/03/07 11:41:02;;;;;;;7.70;7.00;;;;;;;;;;5040363;28;20419;-89
2021/03/07 11:43:28;;;;;;;7.72;7.13;;;;;;;;;;5029069;28;21021;-89
2021/03/07 11:45:54;;;;;;;7.18;6.60;;;;;;;;;;5037902;28;20422;-88
2021/03/07 11:48:20;;;;;;;7.15;6.47;;;;;;;;;;5020716;28;20916;-89
2021/03/07 11:50:52;;;;;;;7.85;7.18;;;;;;;;;;5026453;28;22288;-88
2021/03/07 11:53:18;;;;;;;9.63;8.63;;;;;;;;;;5044022;28;20766;-88
2021/03/07 11:55:44;;;;;;;7.55;6.95;;;;;;;;;;5026120;28;20403;-88
2021/03/07 11:58:10;;;;;;;8.77;7.83;;;;;;;;;;5045710;28;20797;-89
2021/03/07 12:00:36;;;;;;;7.90;7.20;;;;;;;;;;5029621;28;20982;-89
2021/03/07 12:03:02;;;;;;;7.35;6.65;;;;;;;;;;5030052;28;20452;-88
2021/03/07 12:05:28;;;;;;;6.70;6.20;;;;;;;;;;5010887;28;20487;-89
2021/03/07 12:07:53;;;;;;;7.07;6.57;;;;;;;;;;5028726;28;20929;-89
2021/03/07 12:10:20;;;;;;;7.15;6.57;;;;;;;;;;5020111;28;20415;-89
2021/03/07 12:12:46;;;;;;;7.43;6.72;;;;;;;;;;5030510;28;20410;-91
2021/03/07 12:15:12;;;;;;;7.50;6.75;;;;;;;;;;5041694;28;20751;-90
2021/03/07 12:17:38;;;;;;;7.28;6.68;;;;;;;;;;5030622;28;20450;-89
2021/03/07 12:20:04;;;;;;;7.15;6.55;;;;;;;;;;5008750;28;20445;-89
2021/03/07 12:22:30;;;;;;;7.57;6.97;;;;;;;;;;5020571;28;20421;-87
2021/03/07 12:24:56;;;;;;;7.77;7.10;;;;;;;;;;5041131;28;20406;-89
2021/03/07 12:27:22;;;;;;;6.63;6.22;;;;;;;;;;5047382;28;20486;-89
2021/03/07 12:29:48;;;;;;;8.10;7.50;;;;;;;;;;5017208;28;20412;-88
2021/03/07 12:32:14;;;;;;;7.90;7.30;;;;;;;;;;5013043;28;20417;-89
2021/03/07 12:34:40;;;;;;;8.57;7.67;;;;;;;;;;5010616;28;20407;-89
2021/03/07 12:37:06;;;;;;;8.70;7.90;;;;;;;;;;5009800;28;20424;-89
2021/03/07 12:39:32;;;;;;;8.25;7.65;;;;;;;;;;5011881;28;20412;-88
2021/03/07 12:41:58;;;;;;;8.43;7.78;;;;;;;;;;5027076;28;20847;-92
2021/03/07 12:44:24;;;;;;;8.13;7.50;;;;;;;;;;5026537;28;20407;-89
2021/03/07 12:46:50;;;;;;;9.63;8.75;;;;;;;;;;5024219;28;20493;-90
2021/03/07 12:49:16;;;;;;;8.90;8.10;;;;;;;;;;5002460;28;20419;-87
2021/03/07 12:51:42;;;;;;;9.05;8.25;;;;;;;;;;5023432;28;20411;-88
2021/03/07 12:54:08;;;;;;;9.00;8.13;;;;;;;;;;5024704;28;20457;-88
2021/03/07 12:56:35;;;;;;;9.05;8.13;;;;;;;;;;5038807;28;20469;-90
2021/03/07 12:59:03;;;;;;;9.85;8.85;;;;;;;;;;5020716;28;20458;-88
2021/03/07 13:01:29;;;;;;;10.95;8.48;;;;;;;;;;5007498;28;20434;-87
2021/03/07 13:03:55;;;;;;;9.23;8.43;;;;;;;;;;5009026;28;20833;-88
2021/03/07 13:06:21;;;;;;;10.25;8.55;;;;;;;;;;5019350;28;20424;-89
2021/03/07 13:08:50;;;;;;;9.75;8.80;;;;;;;;;;5026592;28;20979;-89
2021/03/07 13:11:17;;;;;;;10.63;9.50;;;;;;;;;;5023333;28;20427;-91
2021/03/07 13:13:43;;;;;;;9.70;8.63;;;;;;;;;;5001467;28;20414;-91
2021/03/07 13:16:08;;;;;;;9.52;8.32;;;;;;;;;;5042495;28;20414;-90
2021/03/07 13:18:34;;;;;;;9.60;8.60;;;;;;;;;;5018182;28;20918;-90
2021/03/07 13:21:02;;;;;;;9.13;7.93;;;;;;;;;;5020153;28;20487;-88
2021/03/07 13:23:28;;;;;;;9.73;8.73;;;;;;;;;;5039349;28;20411;-88
2021/03/07 13:25:54;;;;;;;9.35;8.45;;;;;;;;;;5018417;28;20914;-89
2021/03/07 13:28:20;;;;;;;9.40;8.43;;;;;;;;;;5022127;28;20418;-90
2021/03/07 13:30:46;;;;;;;10.40;8.77;;;;;;;;;;5002551;28;20459;-88
2021/03/07 13:33:12;;;;;;;12.93;9.00;;;;;;;;;;5019632;28;20786;-90
2021/03/07 13:35:38;;;;;;;11.55;8.40;;;;;;;;;;5025374;28;20417;-89
2021/03/07 13:38:05;;;;;;;10.07;8.68;;;;;;;;;;5039584;28;20407;-89
2021/03/07 13:40:31;;;;;;;9.27;8.38;;;;;;;;;;5025007;28;20423;-89
2021/03/07 13:42:58;;;;;;;9.68;8.68;;;;;;;;;;5037046;28;20444;-88
2021/03/07 13:45:25;;;;;;;9.77;8.77;;;;;;;;;;5041378;28;20441;-89
2021/03/07 13:47:51;;;;;;;9.93;8.93;;;;;;;;;;5025510;28;20808;-91
2021/03/07 13:50:17;;;;;;;13.53;9.30;;;;;;;;;;5007558;28;20500;-88
2021/03/07 13:52:43;;;;;;;9.52;8.63;;;;;;;;;;5011706;28;20516;-90
2021/03/07 13:55:09;;;;;;;9.30;8.32;;;;;;;;;;5034757;28;20509;-89
2021/03/07 13:57:35;;;;;;;9.70;8.60;;;;;;;;;;5014695;28;21011;-90
2021/03/07 14:00:05;;;;;;;9.13;8.20;;;;;;;;;;5052021;28;20908;-89
2021/03/07 14:02:38;;;;;;;9.95;8.68;;;;;;;;;;5024944;28;20418;-89
2021/03/07 14:05:05;;;;;;;9.88;8.88;;;;;;;;;;5033239;28;20415;-89
2021/03/07 14:07:37;;;;;;;10.35;9.10;;;;;;;;;;5034120;28;20425;-91
2021/03/07 14:10:07;;;;;;;9.27;8.27;;;;;;;;;;5019344;28;20405;-90
2021/03/07 14:12:33;;;;;;;9.80;8.82;;;;;;;;;;5029464;28;20904;-90
2021/03/07 14:14:58;;;;;;;9.10;8.20;;;;;;;;;;5019999;28;20399;-90
2021/03/07 14:17:24;;;;;;;9.95;9.05;;;;;;;;;;5013950;28;20807;-90
2021/03/07 14:19:50;;;;;;;12.20;10.70;;;;;;;;;;5034423;28;20485;-90
2021/03/07 14:22:16;;;;;;;10.18;8.88;;;;;;;;;;5046465;28;20780;-90
2021/03/07 14:24:42;;;;;;;10.13;8.57;;;;;;;;;;5033100;28;20484;-90
2021/03/07 14:27:08;;;;;;;10.37;9.30;;;;;;;;;;5030398;28;20512;-90
2021/03/07 14:29:34;;;;;;;10.25;8.77;;;;;;;;;;5029924;28;20455;-90
2021/03/07 14:32:00;;;;;;;10.98;9.85;;;;;;;;;;5040316;28;20464;-92
2021/03/07 14:34:26;;;;;;;9.77;8.68;;;;;;;;;;5035570;28;20462;-91
2021/03/07 14:36:52;;;;;;;11.35;10.00;;;;;;;;;;5018098;28;20408;-92
2021/03/07 14:39:19;;;;;;;10.68;9.63;;;;;;;;;;5033510;28;20440;-91
2021/03/07 14:41:45;;;;;;;10.82;9.73;;;;;;;;;;5018745;28;20417;-92
2021/03/07 14:44:10;;;;;;;11.35;9.35;;;;;;;;;;5028507;28;20908;-91
2021/03/07 14:46:37;;;;;;;10.50;9.50;;;;;;;;;;5029638;28;20421;-92